Airport View

Enter AWOS ICAO identifier for current METAR.

ex. KFNL

KBUU 041407Z AUTO 00000KT 10SM 26/21 A3006 RMK AO2 T02610207 PWINO

4 Jul 2020 14:11

Frequency: 114.50

Phone: 262-757-0907

Other Area AWOS: K57C - KENW - KUES - KRAC

TAF KENW 041120Z 0412/0512 02004KT P6SM SCT250 FM041700 07005KT P6SM FEW040 FEW250 FM050100 06003KT P6SM FEW250